QFA479 YSSY-YMML
Flight info
| Callsign | QFA479 |
|---|---|
| Flight time | 1h 16m |
| Altitude | 34000 |
| Route | WOL H65 LEECE Q29 ML |
| Aircraft | B738/M-SDE2E3FGHIRWXY/LB1 |
Departure
| Time | 2026-05-04 08:33 |
|---|---|
| Airport | Sydney Kingsford Smith International Airport (YSSY) |
Arrival
| Time | 2026-05-04 09:49 |
|---|---|
| Airport | Melbourne Airport (YMML) |
| Time | Latitude | Longitude | Altitude | Speed | Heading |
|---|---|---|---|---|---|
| 2026-05-04 07:30 | -33.93147 | 151.17857 | 29 ft | 0 kts | 191° |
| 2026-05-04 08:11 | -33.93147 | 151.17858 | 29 ft | 1 kts | 191° |
| 2026-05-04 08:12 | -33.93127 | 151.17863 | 29 ft | 3 kts | 183° |
| 2026-05-04 08:12 | -33.93110 | 151.17860 | 29 ft | 3 kts | 163° |
| 2026-05-04 08:12 | -33.93091 | 151.17857 | 29 ft | 3 kts | 204° |
| 2026-05-04 08:12 | -33.93077 | 151.17872 | 29 ft | 3 kts | 252° |
| 2026-05-04 08:13 | -33.93075 | 151.17892 | 29 ft | 0 kts | 280° |
| 2026-05-04 08:17 | -33.93075 | 151.17890 | 29 ft | 1 kts | 280° |
| 2026-05-04 08:19 | -33.93293 | 151.17569 | 29 ft | 15 kts | 168° |
| 2026-05-04 08:19 | -33.93396 | 151.17592 | 29 ft | 15 kts | 174° |
| 2026-05-04 08:20 | -33.93503 | 151.17590 | 29 ft | 15 kts | 170° |
| 2026-05-04 08:20 | -33.93604 | 151.17616 | 29 ft | 15 kts | 164° |
| 2026-05-04 08:20 | -33.93694 | 151.17666 | 29 ft | 14 kts | 155° |
| 2026-05-04 08:20 | -33.93785 | 151.17695 | 29 ft | 14 kts | 168° |
| 2026-05-04 08:21 | -33.93871 | 151.17762 | 29 ft | 17 kts | 145° |
| 2026-05-04 08:21 | -33.93999 | 151.17804 | 28 ft | 21 kts | 168° |
| 2026-05-04 08:21 | -33.94137 | 151.17840 | 29 ft | 20 kts | 168° |
| 2026-05-04 08:21 | -33.94272 | 151.17874 | 29 ft | 19 kts | 168° |
| 2026-05-04 08:22 | -33.94402 | 151.17908 | 29 ft | 19 kts | 169° |
| 2026-05-04 08:22 | -33.94515 | 151.17883 | 29 ft | 16 kts | 181° |
| 2026-05-04 08:24 | -33.95075 | 151.18242 | 29 ft | 12 kts | 78° |
| 2026-05-04 08:24 | -33.95058 | 151.18340 | 29 ft | 12 kts | 78° |
| 2026-05-04 08:24 | -33.95042 | 151.18449 | 29 ft | 14 kts | 94° |
| 2026-05-04 08:24 | -33.95109 | 151.18537 | 29 ft | 17 kts | 140° |
| 2026-05-04 08:25 | -33.95203 | 151.18639 | 29 ft | 18 kts | 138° |
| 2026-05-04 08:25 | -33.95309 | 151.18714 | 29 ft | 18 kts | 162° |
| 2026-05-04 08:25 | -33.95431 | 151.18747 | 29 ft | 19 kts | 168° |
| 2026-05-04 08:25 | -33.95559 | 151.18782 | 29 ft | 18 kts | 167° |
| 2026-05-04 08:26 | -33.95678 | 151.18813 | 29 ft | 17 kts | 168° |
| 2026-05-04 08:27 | -33.96590 | 151.19049 | 29 ft | 17 kts | 167° |
| 2026-05-04 08:28 | -33.96707 | 151.19074 | 29 ft | 17 kts | 179° |
| 2026-05-04 08:28 | -33.96820 | 151.19066 | 29 ft | 16 kts | 172° |
| 2026-05-04 08:28 | -33.96927 | 151.19092 | 29 ft | 15 kts | 168° |
| 2026-05-04 08:28 | -33.97026 | 151.19117 | 29 ft | 14 kts | 168° |
| 2026-05-04 08:29 | -33.97115 | 151.19163 | 29 ft | 15 kts | 123° |
| 2026-05-04 08:29 | -33.97110 | 151.19291 | 27 ft | 17 kts | 78° |
| 2026-05-04 08:29 | -33.97058 | 151.19370 | 26 ft | 9 kts | 6° |
| 2026-05-04 08:31 | -33.94930 | 151.18814 | 433 ft | 165 kts | 349° |
| 2026-05-04 08:33 | -33.93700 | 151.28630 | 4802 ft | 250 kts | 83° |
| 2026-05-04 08:33 | -33.93656 | 151.30794 | 4992 ft | 263 kts | 83° |
| 2026-05-04 08:35 | -33.93188 | 151.47477 | 5984 ft | 290 kts | 83° |
| 2026-05-04 08:35 | -33.93314 | 151.49904 | 5970 ft | 295 kts | 103° |
| 2026-05-04 08:35 | -33.94333 | 151.52047 | 5989 ft | 299 kts | 134° |
| 2026-05-04 08:35 | -33.96021 | 151.53430 | 6078 ft | 300 kts | 157° |
| 2026-05-04 08:37 | -34.09741 | 151.60416 | 10369 ft | 385 kts | 160° |
| 2026-05-04 08:37 | -34.12366 | 151.61013 | 11151 ft | 386 kts | 185° |
| 2026-05-04 08:37 | -34.14930 | 151.60275 | 11824 ft | 380 kts | 210° |
| 2026-05-04 08:38 | -34.17083 | 151.58496 | 12472 ft | 375 kts | 227° |
| 2026-05-04 08:38 | -34.18742 | 151.56102 | 13119 ft | 371 kts | 242° |
| 2026-05-04 08:38 | -34.20077 | 151.53421 | 13805 ft | 374 kts | 244° |
| 2026-05-04 08:40 | -34.29465 | 151.33820 | 18035 ft | 396 kts | 245° |
| 2026-05-04 08:40 | -34.30869 | 151.30922 | 18569 ft | 399 kts | 245° |
| 2026-05-04 08:40 | -34.32271 | 151.28028 | 19107 ft | 401 kts | 245° |
| 2026-05-04 08:41 | -34.33683 | 151.25114 | 19682 ft | 402 kts | 245° |
| 2026-05-04 08:41 | -34.35097 | 151.22192 | 20236 ft | 403 kts | 245° |
| 2026-05-04 08:41 | -34.36515 | 151.19257 | 20766 ft | 405 kts | 245° |
| 2026-05-04 08:41 | -34.37922 | 151.16343 | 21285 ft | 407 kts | 245° |
| 2026-05-04 08:42 | -34.39351 | 151.13380 | 21787 ft | 409 kts | 245° |
| 2026-05-04 08:42 | -34.40790 | 151.10396 | 22270 ft | 411 kts | 245° |
| 2026-05-04 08:42 | -34.42234 | 151.07396 | 22764 ft | 412 kts | 246° |
| 2026-05-04 08:42 | -34.43679 | 151.04393 | 23254 ft | 414 kts | 246° |
| 2026-05-04 08:43 | -34.45131 | 151.01373 | 23688 ft | 416 kts | 246° |
| 2026-05-04 08:43 | -34.46592 | 150.98331 | 24053 ft | 418 kts | 246° |
| 2026-05-04 08:43 | -34.48057 | 150.95278 | 24401 ft | 421 kts | 246° |
| 2026-05-04 08:43 | -34.49538 | 150.92189 | 24751 ft | 423 kts | 246° |
| 2026-05-04 08:44 | -34.51018 | 150.89099 | 25100 ft | 426 kts | 246° |
| 2026-05-04 08:44 | -34.52514 | 150.85974 | 25453 ft | 428 kts | 246° |
| 2026-05-04 08:46 | -34.64515 | 150.64541 | 27650 ft | 450 kts | 240° |
| 2026-05-04 08:46 | -34.66391 | 150.61482 | 27933 ft | 451 kts | 241° |
| 2026-05-04 08:46 | -34.68234 | 150.58446 | 28221 ft | 453 kts | 241° |
| 2026-05-04 08:46 | -34.70117 | 150.55322 | 28570 ft | 454 kts | 241° |
| 2026-05-04 08:47 | -34.71956 | 150.52261 | 28960 ft | 453 kts | 241° |
| 2026-05-04 08:47 | -34.73809 | 150.49167 | 29409 ft | 451 kts | 241° |
| 2026-05-04 08:47 | -34.75654 | 150.46085 | 29850 ft | 450 kts | 242° |
| 2026-05-04 08:47 | -34.77489 | 150.43016 | 30255 ft | 448 kts | 242° |
| 2026-05-04 08:48 | -34.79316 | 150.39959 | 30629 ft | 446 kts | 242° |
| 2026-05-04 08:48 | -34.81140 | 150.36907 | 31006 ft | 443 kts | 242° |
| 2026-05-04 08:48 | -34.82940 | 150.33890 | 31446 ft | 440 kts | 242° |
| 2026-05-04 08:48 | -34.84732 | 150.30882 | 31833 ft | 438 kts | 242° |
| 2026-05-04 08:49 | -34.86514 | 150.27889 | 32194 ft | 436 kts | 242° |
| 2026-05-04 08:50 | -34.97012 | 150.10199 | 34001 ft | 427 kts | 243° |
| 2026-05-04 08:50 | -34.98747 | 150.07265 | 34030 ft | 427 kts | 243° |
| 2026-05-04 08:51 | -35.02218 | 150.01395 | 34031 ft | 426 kts | 243° |
| 2026-05-04 08:51 | -35.05095 | 149.96523 | 34028 ft | 426 kts | 243° |
| 2026-05-04 08:52 | -35.09122 | 149.89700 | 34040 ft | 425 kts | 243° |
| 2026-05-04 08:52 | -35.12579 | 149.83840 | 34037 ft | 425 kts | 243° |
| 2026-05-04 08:54 | -35.25787 | 149.61344 | 34051 ft | 425 kts | 244° |
| 2026-05-04 08:55 | -35.29249 | 149.55418 | 34196 ft | 430 kts | 244° |
| 2026-05-04 08:55 | -35.30986 | 149.52442 | 34474 ft | 429 kts | 243° |
| 2026-05-04 08:55 | -35.32715 | 149.49486 | 34801 ft | 426 kts | 243° |
| 2026-05-04 08:57 | -35.44744 | 149.28799 | 36068 ft | 427 kts | 243° |
| 2026-05-04 09:01 | -35.67349 | 148.89597 | 36072 ft | 376 kts | 245° |
| 2026-05-04 09:01 | -35.70363 | 148.84329 | 36075 ft | 378 kts | 245° |
| 2026-05-04 09:02 | -35.73367 | 148.79075 | 36077 ft | 379 kts | 245° |
| 2026-05-04 09:02 | -35.76400 | 148.73766 | 36083 ft | 379 kts | 245° |
| 2026-05-04 09:03 | -35.79436 | 148.68442 | 36073 ft | 380 kts | 245° |
| 2026-05-04 09:03 | -35.82486 | 148.63084 | 36075 ft | 381 kts | 245° |
| 2026-05-04 09:04 | -35.85530 | 148.57731 | 36073 ft | 381 kts | 245° |
| 2026-05-04 09:04 | -35.88571 | 148.52374 | 36073 ft | 382 kts | 245° |
| 2026-05-04 09:05 | -35.91599 | 148.47002 | 36079 ft | 381 kts | 245° |
| 2026-05-04 09:05 | -35.94621 | 148.41624 | 36072 ft | 381 kts | 245° |
| 2026-05-04 09:06 | -35.97610 | 148.36297 | 36074 ft | 380 kts | 245° |
| 2026-05-04 09:08 | -36.09624 | 148.14806 | 36082 ft | 385 kts | 245° |
| 2026-05-04 09:08 | -36.12698 | 148.09282 | 36088 ft | 395 kts | 244° |
| 2026-05-04 09:09 | -36.15862 | 148.03614 | 36083 ft | 405 kts | 244° |
| 2026-05-04 09:09 | -36.19109 | 147.97798 | 36073 ft | 415 kts | 244° |
| 2026-05-04 09:10 | -36.22418 | 147.91860 | 36067 ft | 423 kts | 244° |
| 2026-05-04 09:10 | -36.25770 | 147.85835 | 36075 ft | 431 kts | 244° |
| 2026-05-04 09:11 | -36.29193 | 147.79672 | 36074 ft | 435 kts | 243° |
| 2026-05-04 09:11 | -36.32628 | 147.73477 | 36061 ft | 437 kts | 243° |
| 2026-05-04 09:12 | -36.36064 | 147.67255 | 36065 ft | 438 kts | 243° |
| 2026-05-04 09:14 | -36.49757 | 147.42328 | 36044 ft | 434 kts | 243° |
| 2026-05-04 09:14 | -36.53149 | 147.36124 | 36039 ft | 432 kts | 243° |
| 2026-05-04 09:15 | -36.56519 | 147.29949 | 36042 ft | 430 kts | 243° |
| 2026-05-04 09:15 | -36.59869 | 147.23800 | 36039 ft | 428 kts | 243° |
| 2026-05-04 09:17 | -36.74568 | 146.96678 | 36051 ft | 425 kts | 244° |
| 2026-05-04 09:18 | -36.76253 | 146.93560 | 35922 ft | 431 kts | 244° |
| 2026-05-04 09:18 | -36.77955 | 146.90402 | 35316 ft | 442 kts | 244° |
| 2026-05-04 09:18 | -36.79647 | 146.87270 | 34689 ft | 440 kts | 244° |
| 2026-05-04 09:18 | -36.81359 | 146.84112 | 34063 ft | 436 kts | 244° |
| 2026-05-04 09:19 | -36.83038 | 146.81008 | 33274 ft | 433 kts | 244° |
| 2026-05-04 09:19 | -36.84716 | 146.77901 | 32550 ft | 428 kts | 245° |
| 2026-05-04 09:19 | -36.86366 | 146.74839 | 32048 ft | 419 kts | 245° |
| 2026-05-04 09:19 | -36.87979 | 146.71847 | 31555 ft | 411 kts | 245° |
| 2026-05-04 09:20 | -36.89558 | 146.68911 | 31096 ft | 403 kts | 246° |
| 2026-05-04 09:20 | -36.91103 | 146.66033 | 30638 ft | 396 kts | 246° |
| 2026-05-04 09:20 | -36.92627 | 146.63185 | 30180 ft | 390 kts | 247° |
| 2026-05-04 09:20 | -36.94124 | 146.60388 | 29669 ft | 384 kts | 247° |
| 2026-05-04 09:21 | -36.95602 | 146.57619 | 29185 ft | 382 kts | 247° |
| 2026-05-04 09:21 | -36.97083 | 146.54833 | 28721 ft | 387 kts | 246° |
| 2026-05-04 09:21 | -36.98569 | 146.52042 | 28238 ft | 382 kts | 246° |
| 2026-05-04 09:21 | -37.00034 | 146.49303 | 27764 ft | 375 kts | 246° |
| 2026-05-04 09:22 | -37.01472 | 146.46612 | 27324 ft | 369 kts | 246° |
| 2026-05-04 09:22 | -37.02885 | 146.43958 | 26898 ft | 366 kts | 246° |
| 2026-05-04 09:22 | -37.04294 | 146.41306 | 26479 ft | 364 kts | 246° |
| 2026-05-04 09:22 | -37.05690 | 146.38678 | 26025 ft | 363 kts | 246° |
| 2026-05-04 09:23 | -37.07084 | 146.36054 | 25606 ft | 361 kts | 245° |
| 2026-05-04 09:23 | -37.08473 | 146.33441 | 25161 ft | 358 kts | 245° |
| 2026-05-04 09:23 | -37.09842 | 146.30860 | 24682 ft | 355 kts | 245° |
| 2026-05-04 09:23 | -37.11200 | 146.28296 | 24197 ft | 351 kts | 244° |
| 2026-05-04 09:25 | -37.20317 | 146.11011 | 20884 ft | 330 kts | 242° |
| 2026-05-04 09:25 | -37.21585 | 146.08596 | 20485 ft | 332 kts | 242° |
| 2026-05-04 09:26 | -37.22855 | 146.06175 | 20088 ft | 333 kts | 242° |
| 2026-05-04 09:26 | -37.24128 | 146.03754 | 19696 ft | 330 kts | 241° |
| 2026-05-04 09:26 | -37.25387 | 146.01355 | 19287 ft | 327 kts | 241° |
| 2026-05-04 09:26 | -37.26635 | 145.98978 | 18905 ft | 324 kts | 241° |
| 2026-05-04 09:27 | -37.27868 | 145.96624 | 18512 ft | 322 kts | 241° |
| 2026-05-04 09:27 | -37.29098 | 145.94277 | 18095 ft | 320 kts | 241° |
| 2026-05-04 09:27 | -37.30314 | 145.91954 | 17681 ft | 317 kts | 241° |
| 2026-05-04 09:27 | -37.31523 | 145.89649 | 17330 ft | 314 kts | 241° |
| 2026-05-04 09:28 | -37.32732 | 145.87347 | 16930 ft | 316 kts | 241° |
| 2026-05-04 09:28 | -37.33948 | 145.85034 | 16536 ft | 315 kts | 241° |
| 2026-05-04 09:28 | -37.35148 | 145.82750 | 16127 ft | 313 kts | 241° |
| 2026-05-04 09:28 | -37.36342 | 145.80477 | 15787 ft | 310 kts | 241° |
| 2026-05-04 09:29 | -37.37528 | 145.78214 | 15395 ft | 309 kts | 241° |
| 2026-05-04 09:29 | -37.38703 | 145.75971 | 15010 ft | 305 kts | 241° |
| 2026-05-04 09:29 | -37.39860 | 145.73762 | 14644 ft | 298 kts | 241° |
| 2026-05-04 09:29 | -37.40978 | 145.71626 | 14279 ft | 293 kts | 241° |
| 2026-05-04 09:30 | -37.42086 | 145.69507 | 13920 ft | 288 kts | 241° |
| 2026-05-04 09:30 | -37.43180 | 145.67413 | 13555 ft | 284 kts | 241° |
| 2026-05-04 09:30 | -37.44256 | 145.65352 | 13162 ft | 281 kts | 241° |
| 2026-05-04 09:30 | -37.45333 | 145.63298 | 12837 ft | 283 kts | 240° |
| 2026-05-04 09:31 | -37.46485 | 145.61269 | 12480 ft | 288 kts | 238° |
| 2026-05-04 09:31 | -37.47681 | 145.59236 | 12114 ft | 289 kts | 238° |
| 2026-05-04 09:31 | -37.48876 | 145.57212 | 11748 ft | 288 kts | 238° |
| 2026-05-04 09:31 | -37.50072 | 145.55178 | 11365 ft | 287 kts | 239° |
| 2026-05-04 09:32 | -37.51253 | 145.53160 | 11032 ft | 286 kts | 239° |
| 2026-05-04 09:32 | -37.52431 | 145.51135 | 10670 ft | 286 kts | 239° |
| 2026-05-04 09:34 | -37.59990 | 145.38089 | 9784 ft | 262 kts | 239° |
| 2026-05-04 09:34 | -37.61056 | 145.36250 | 9498 ft | 256 kts | 239° |
| 2026-05-04 09:34 | -37.62094 | 145.34457 | 9237 ft | 249 kts | 239° |
| 2026-05-04 09:34 | -37.63091 | 145.32732 | 8965 ft | 245 kts | 240° |
| 2026-05-04 09:35 | -37.64091 | 145.30997 | 8711 ft | 243 kts | 240° |
| 2026-05-04 09:35 | -37.65087 | 145.29267 | 8313 ft | 247 kts | 240° |
| 2026-05-04 09:35 | -37.66110 | 145.27488 | 7919 ft | 252 kts | 240° |
| 2026-05-04 09:35 | -37.67142 | 145.25697 | 7604 ft | 253 kts | 240° |
| 2026-05-04 09:37 | -37.73909 | 145.13938 | 5873 ft | 244 kts | 240° |
| 2026-05-04 09:37 | -37.74908 | 145.12196 | 5624 ft | 245 kts | 240° |
| 2026-05-04 09:38 | -37.75902 | 145.10465 | 5366 ft | 243 kts | 240° |
| 2026-05-04 09:38 | -37.76892 | 145.08740 | 5112 ft | 241 kts | 240° |
| 2026-05-04 09:38 | -37.77872 | 145.07030 | 4864 ft | 238 kts | 240° |
| 2026-05-04 09:38 | -37.78831 | 145.05356 | 4596 ft | 232 kts | 240° |
| 2026-05-04 09:39 | -37.79768 | 145.03721 | 4336 ft | 227 kts | 240° |
| 2026-05-04 09:39 | -37.80700 | 145.02122 | 4088 ft | 228 kts | 235° |
| 2026-05-04 09:39 | -37.82557 | 145.00847 | 3951 ft | 239 kts | 194° |
| 2026-05-04 09:39 | -37.83686 | 145.00825 | 3803 ft | 240 kts | 184° |
| 2026-05-04 09:40 | -37.85337 | 145.00990 | 3552 ft | 235 kts | 182° |
| 2026-05-04 09:40 | -37.86888 | 145.01194 | 3557 ft | 219 kts | 182° |
| 2026-05-04 09:40 | -37.88409 | 145.01408 | 3597 ft | 216 kts | 182° |
| 2026-05-04 09:40 | -37.89906 | 145.01607 | 3611 ft | 217 kts | 185° |
| 2026-05-04 09:41 | -37.91296 | 145.01182 | 3330 ft | 200 kts | 228° |
| 2026-05-04 09:42 | -37.88361 | 144.92749 | 2473 ft | 162 kts | 312° |
| 2026-05-04 09:43 | -37.87541 | 144.91771 | 2478 ft | 162 kts | 313° |
| 2026-05-04 09:43 | -37.86721 | 144.90795 | 2480 ft | 157 kts | 313° |
| 2026-05-04 09:43 | -37.85941 | 144.89869 | 2473 ft | 152 kts | 313° |
| 2026-05-04 09:43 | -37.85192 | 144.88979 | 2479 ft | 148 kts | 313° |
| 2026-05-04 09:44 | -37.84428 | 144.88102 | 2469 ft | 149 kts | 318° |
| 2026-05-04 09:44 | -37.83520 | 144.87451 | 2515 ft | 152 kts | 329° |
| 2026-05-04 09:44 | -37.82512 | 144.87017 | 2478 ft | 153 kts | 336° |
| 2026-05-04 09:46 | -37.75388 | 144.85388 | 1704 ft | 140 kts | 342° |
| 2026-05-04 09:46 | -37.74450 | 144.85206 | 1480 ft | 134 kts | 346° |
| 2026-05-04 09:46 | -37.73524 | 144.85042 | 1309 ft | 136 kts | 347° |
| 2026-05-04 09:47 | -37.72573 | 144.84847 | 1179 ft | 140 kts | 347° |
| 2026-05-04 09:47 | -37.71621 | 144.84664 | 1017 ft | 140 kts | 349° |
| 2026-05-04 09:49 | -37.66813 | 144.83927 | 391 ft | 23 kts | 21° |
| 2026-05-04 09:49 | -37.66694 | 144.83987 | 392 ft | 17 kts | 22° |
| 2026-05-04 09:49 | -37.66591 | 144.84045 | 400 ft | 16 kts | 36° |
| 2026-05-04 09:51 | -37.66498 | 144.84778 | 404 ft | 5 kts | 153° |
| 2026-05-04 09:51 | -37.66502 | 144.84780 | 404 ft | 0 kts | 156° |
| 2026-05-04 09:54 | -37.66503 | 144.84781 | 406 ft | 1 kts | 156° |
| 2026-05-04 09:54 | -37.66523 | 144.84792 | 402 ft | 5 kts | 160° |
| 2026-05-04 09:54 | -37.66577 | 144.84800 | 404 ft | 10 kts | 186° |
| 2026-05-04 09:54 | -37.66664 | 144.84802 | 401 ft | 14 kts | 168° |
| 2026-05-04 09:55 | -37.66751 | 144.84830 | 397 ft | 12 kts | 166° |
| 2026-05-04 09:55 | -37.66800 | 144.84857 | 393 ft | 3 kts | 122° |
| 2026-05-04 09:55 | -37.66801 | 144.84882 | 395 ft | 3 kts | 88° |
| 2026-05-04 09:55 | -37.66799 | 144.84905 | 398 ft | 1 kts | 83° |
| 2026-05-04 09:56 | -37.66799 | 144.84911 | 396 ft | 1 kts | 82° |
| 2026-05-04 09:56 | -37.66798 | 144.84919 | 397 ft | 1 kts | 82° |
| 2026-05-04 09:56 | -37.66798 | 144.84920 | 397 ft | 0 kts | 82° |